Time;durP1;ratioP1;P1;durP2;ratioP2;P2;SDS_P1;SDS_P2;PMS_P1;PMS_P2;Temp;Humidity;BMP_temperature;BMP_pressure;BME280_temperature;BME280_humidity;BME280_pressure;Samples;Min_cycle;Max_cycle;Signal;HPM_P1;HPM_P2
2021/07/21 00:02:01;;;;;;;;;21.33;15.67;;;;;;;;5019381;27;47341;-81
2021/07/21 00:04:27;;;;;;;;;18.50;14.75;;;;;;;;5031125;27;45510;-81
2021/07/21 00:06:52;;;;;;;;;17.50;17.00;;;;;;;;5038216;28;45783;-81
2021/07/21 00:09:17;;;;;;;;;17.33;15.67;;;;;;;;5033897;27;45381;-80
2021/07/21 00:14:27;;;;;;;;;20.50;16.50;;;;;;;;5031741;27;45449;-81
2021/07/21 00:16:58;;;;;;;;;18.00;14.00;;;;;;;;5036471;27;45456;-81
2021/07/21 00:22:07;;;;;;;;;19.75;16.00;;;;;;;;5039011;27;45939;-81
2021/07/21 00:24:33;;;;;;;;;20.75;17.00;;;;;;;;5034333;27;45369;-80
2021/07/21 00:26:58;;;;;;;;;18.00;16.00;;;;;;;;5030606;27;46618;-80
2021/07/21 00:29:23;;;;;;;;;17.33;15.00;;;;;;;;5019339;28;45534;-80
2021/07/21 00:31:48;;;;;;;;;21.33;16.33;;;;;;;;5038038;27;46480;-80
2021/07/21 00:34:14;;;;;;;;;21.50;17.00;;;;;;;;5037844;27;45504;-80
2021/07/21 00:36:39;;;;;;;;;18.25;15.50;;;;;;;;5034642;28;45364;-80
2021/07/21 00:39:04;;;;;;;;;22.00;17.00;;;;;;;;5033062;27;45446;-81
2021/07/21 00:41:30;;;;;;;;;21.33;19.00;;;;;;;;5037228;27;45434;-80
2021/07/21 00:43:55;;;;;;;;;21.25;18.75;;;;;;;;5036824;27;45486;-80
2021/07/21 00:46:20;;;;;;;;;20.00;19.25;;;;;;;;5035436;27;45317;-80
2021/07/21 00:48:45;;;;;;;;;22.33;16.67;;;;;;;;5021287;28;45994;-81
2021/07/21 00:51:10;;;;;;;;;20.00;17.33;;;;;;;;5015137;27;48239;-80
2021/07/21 00:53:36;;;;;;;;;21.33;19.67;;;;;;;;5038949;27;45537;-80
2021/07/21 00:56:01;;;;;;;;;18.33;16.33;;;;;;;;5035500;27;45300;-81
2021/07/21 00:58:26;;;;;;;;;18.00;16.00;;;;;;;;5040639;27;45581;-80
2021/07/21 01:00:55;;;;;;;;;12.67;12.33;;;;;;;;5022070;28;47261;-80
2021/07/21 01:03:20;;;;;;;;;20.00;17.50;;;;;;;;5034185;27;45548;-80
2021/07/21 01:05:46;;;;;;;;;20.67;16.00;;;;;;;;5035406;27;45382;-81
2021/07/21 01:08:12;;;;;;;;;20.33;20.00;;;;;;;;5021750;27;45386;-79
2021/07/21 01:10:43;;;;;;;;;19.75;15.00;;;;;;;;5038386;27;45700;-81
2021/07/21 01:13:18;;;;;;;;;20.75;19.00;;;;;;;;5032954;27;46325;-79
2021/07/21 01:15:48;;;;;;;;;21.50;16.25;;;;;;;;5035228;28;45604;-80
2021/07/21 01:18:20;;;;;;;;;20.25;17.50;;;;;;;;5035628;27;45312;-79
2021/07/21 01:21:04;;;;;;;;;20.00;17.00;;;;;;;;5016401;27;47796;-80
2021/07/21 01:23:32;;;;;;;;;19.50;18.25;;;;;;;;5042232;27;45426;-81
2021/07/21 01:26:03;;;;;;;;;20.50;16.75;;;;;;;;5035868;27;45544;-80
2021/07/21 01:28:28;;;;;;;;;26.75;21.00;;;;;;;;5036169;27;45609;-80
2021/07/21 01:30:56;;;;;;;;;22.25;19.25;;;;;;;;5026700;28;47808;-80
2021/07/21 01:33:22;;;;;;;;;21.75;16.75;;;;;;;;5036886;27;45826;-80
2021/07/21 01:35:54;;;;;;;;;23.50;16.50;;;;;;;;5031016;27;45390;-80
2021/07/21 01:38:23;;;;;;;;;19.50;16.50;;;;;;;;5035906;27;45352;-80
2021/07/21 01:40:51;;;;;;;;;20.25;16.50;;;;;;;;5032653;27;46033;-80
2021/07/21 01:43:19;;;;;;;;;15.50;14.25;;;;;;;;5038032;27;45313;-79
2021/07/21 01:45:46;;;;;;;;;19.00;17.75;;;;;;;;5035621;27;45490;-80
2021/07/21 01:48:12;;;;;;;;;16.50;15.50;;;;;;;;5033167;27;45464;-79
2021/07/21 01:50:39;;;;;;;;;20.25;17.50;;;;;;;;5035607;27;45612;-80
2021/07/21 01:53:04;;;;;;;;;21.75;18.00;;;;;;;;5034061;27;46021;-80
2021/07/21 01:55:30;;;;;;;;;21.25;18.00;;;;;;;;5018068;27;45436;-79
2021/07/21 01:57:56;;;;;;;;;14.50;14.50;;;;;;;;5041029;28;45385;-80
2021/07/21 02:00:22;;;;;;;;;25.50;20.25;;;;;;;;5098102;27;46848;-80
2021/07/21 02:02:49;;;;;;;;;23.25;17.00;;;;;;;;5035554;27;45408;-80
2021/07/21 02:05:16;;;;;;;;;22.00;17.00;;;;;;;;5038962;27;45634;-80
2021/07/21 02:07:43;;;;;;;;;22.50;17.25;;;;;;;;5033336;27;45423;-79
2021/07/21 02:10:10;;;;;;;;;18.75;17.00;;;;;;;;5032597;27;46517;-79
2021/07/21 02:12:35;;;;;;;;;19.50;16.25;;;;;;;;5033036;28;45521;-79
2021/07/21 02:15:00;;;;;;;;;17.50;16.00;;;;;;;;5029451;27;45313;-80
2021/07/21 02:17:27;;;;;;;;;20.00;17.00;;;;;;;;5022686;27;45549;-80
2021/07/21 02:19:53;;;;;;;;;21.25;16.25;;;;;;;;5027125;27;46217;-79
2021/07/21 02:22:18;;;;;;;;;19.50;17.25;;;;;;;;5018788;27;45906;-80
2021/07/21 02:24:44;;;;;;;;;17.75;15.50;;;;;;;;5033838;27;45598;-80
2021/07/21 02:27:10;;;;;;;;;20.25;16.25;;;;;;;;5030415;27;45401;-80
2021/07/21 02:29:35;;;;;;;;;19.00;16.50;;;;;;;;5034547;27;45313;-80
2021/07/21 02:32:09;;;;;;;;;24.50;20.25;;;;;;;;5033395;27;45436;-80
2021/07/21 02:34:35;;;;;;;;;19.25;15.00;;;;;;;;5037047;27;45394;-80
2021/07/21 02:37:01;;;;;;;;;22.00;19.00;;;;;;;;5032926;28;45571;-80
2021/07/21 02:39:27;;;;;;;;;24.75;20.00;;;;;;;;5027906;27;46518;-80
2021/07/21 02:41:52;;;;;;;;;23.00;19.33;;;;;;;;5009419;28;46024;-80
2021/07/21 02:44:20;;;;;;;;;22.25;18.75;;;;;;;;5041425;27;45478;-80
2021/07/21 02:46:45;;;;;;;;;18.25;17.25;;;;;;;;5038274;27;45498;-79
2021/07/21 02:49:11;;;;;;;;;18.00;17.75;;;;;;;;5037309;27;46019;-80
2021/07/21 02:51:54;;;;;;;;;22.25;20.25;;;;;;;;5022446;28;45512;-80
2021/07/21 02:54:35;;;;;;;;;18.50;16.25;;;;;;;;5032371;27;45403;-80
2021/07/21 02:57:06;;;;;;;;;21.75;18.25;;;;;;;;5079865;27;45491;-80
2021/07/21 02:59:41;;;;;;;;;21.25;16.75;;;;;;;;5038506;27;46110;-79
2021/07/21 03:02:07;;;;;;;;;23.25;19.00;;;;;;;;5041917;27;45538;-79
2021/07/21 03:04:33;;;;;;;;;17.75;15.00;;;;;;;;5033196;27;45535;-79
2021/07/21 03:06:59;;;;;;;;;21.00;19.50;;;;;;;;5032868;28;45779;-80
2021/07/21 03:09:24;;;;;;;;;18.75;16.25;;;;;;;;5030492;27;45477;-79
2021/07/21 03:11:52;;;;;;;;;22.67;18.00;;;;;;;;5027338;27;45560;-79
2021/07/21 03:14:18;;;;;;;;;21.75;19.75;;;;;;;;5034905;27;45338;-80
2021/07/21 03:16:47;;;;;;;;;17.50;13.25;;;;;;;;5039202;27;45443;-80
2021/07/21 03:19:14;;;;;;;;;22.25;17.00;;;;;;;;5037070;27;46336;-81
2021/07/21 03:21:40;;;;;;;;;15.25;15.25;;;;;;;;5029856;27;45986;-79
2021/07/21 03:24:06;;;;;;;;;27.50;19.75;;;;;;;;5029029;27;45453;-79
2021/07/21 03:26:32;;;;;;;;;21.50;19.75;;;;;;;;5037530;27;45420;-80
2021/07/21 03:28:58;;;;;;;;;18.00;15.50;;;;;;;;5035566;27;45750;-80
2021/07/21 03:31:24;;;;;;;;;20.50;17.25;;;;;;;;5037461;27;45520;-80
2021/07/21 03:34:01;;;;;;;;;16.50;15.00;;;;;;;;5034109;27;45392;-80
2021/07/21 03:36:28;;;;;;;;;20.75;18.00;;;;;;;;5032415;28;45600;-80
2021/07/21 03:38:55;;;;;;;;;24.00;17.50;;;;;;;;5030929;27;46200;-79
2021/07/21 03:41:21;;;;;;;;;20.00;17.50;;;;;;;;5042968;27;45837;-79
2021/07/21 03:43:46;;;;;;;;;22.75;16.75;;;;;;;;5016070;27;45740;-80
2021/07/21 03:46:11;;;;;;;;;21.67;21.33;;;;;;;;5014713;27;45507;-78
2021/07/21 03:48:38;;;;;;;;;19.33;17.00;;;;;;;;5011698;28;46075;-79
2021/07/21 03:51:03;;;;;;;;;25.25;19.75;;;;;;;;5002307;27;45919;-80
2021/07/21 03:53:31;;;;;;;;;22.25;17.25;;;;;;;;5013928;27;45678;-80
2021/07/21 03:55:56;;;;;;;;;20.00;16.25;;;;;;;;5011185;27;45560;-79
2021/07/21 03:58:22;;;;;;;;;20.50;17.50;;;;;;;;5011745;27;46008;-79
2021/07/21 04:00:47;;;;;;;;;23.33;19.67;;;;;;;;5018578;27;45884;-79
2021/07/21 04:03:13;;;;;;;;;17.00;17.00;;;;;;;;5015367;27;45548;-79
2021/07/21 04:05:38;;;;;;;;;14.75;13.50;;;;;;;;5012085;27;45433;-79
2021/07/21 04:08:04;;;;;;;;;19.25;13.50;;;;;;;;5009055;27;46359;-79
2021/07/21 04:10:30;;;;;;;;;18.25;16.00;;;;;;;;5011664;27;45533;-79
2021/07/21 04:12:57;;;;;;;;;19.00;16.50;;;;;;;;5008711;27;45455;-80
2021/07/21 04:15:23;;;;;;;;;23.75;18.50;;;;;;;;5018253;27;45291;-79
2021/07/21 04:17:50;;;;;;;;;20.00;17.75;;;;;;;;5013694;27;45926;-79
2021/07/21 04:20:16;;;;;;;;;22.00;18.75;;;;;;;;5009511;27;45457;-81
2021/07/21 04:22:41;;;;;;;;;20.00;16.25;;;;;;;;5010062;27;45300;-79
2021/07/21 04:25:09;;;;;;;;;22.75;18.50;;;;;;;;5005143;28;45605;-80
2021/07/21 04:27:35;;;;;;;;;21.50;18.25;;;;;;;;5001564;28;47204;-81
2021/07/21 04:30:01;;;;;;;;;19.50;15.50;;;;;;;;5014198;27;45420;-81
2021/07/21 04:32:28;;;;;;;;;25.00;18.50;;;;;;;;5070365;27;45434;-81
2021/07/21 04:34:53;;;;;;;;;19.50;17.00;;;;;;;;5010885;27;45879;-81
2021/07/21 04:37:19;;;;;;;;;24.25;17.75;;;;;;;;5015263;27;48784;-79
2021/07/21 04:39:44;;;;;;;;;24.75;17.00;;;;;;;;5010379;28;45470;-81
2021/07/21 04:42:10;;;;;;;;;20.00;15.67;;;;;;;;5033076;27;45512;-80
2021/07/21 04:44:37;;;;;;;;;19.50;16.00;;;;;;;;5031694;27;45701;-81
2021/07/21 04:47:03;;;;;;;;;23.00;19.00;;;;;;;;5017366;28;47144;-80
2021/07/21 04:49:28;;;;;;;;;22.00;17.00;;;;;;;;5030459;27;45566;-80
2021/07/21 04:51:56;;;;;;;;;19.50;17.75;;;;;;;;5041033;27;45530;-80
2021/07/21 04:54:21;;;;;;;;;21.75;19.00;;;;;;;;5085290;27;45571;-80
2021/07/21 04:56:47;;;;;;;;;24.25;19.50;;;;;;;;5028926;27;46167;-80
2021/07/21 04:59:13;;;;;;;;;23.25;18.25;;;;;;;;5033273;27;45617;-81
2021/07/21 05:01:38;;;;;;;;;19.25;17.00;;;;;;;;5027628;27;45847;-80
2021/07/21 05:04:04;;;;;;;;;25.25;22.00;;;;;;;;5041200;28;45302;-79
2021/07/21 05:06:30;;;;;;;;;22.25;18.25;;;;;;;;5031403;27;45934;-80
2021/07/21 05:08:55;;;;;;;;;17.00;17.00;;;;;;;;5018635;27;45401;-80
2021/07/21 05:11:21;;;;;;;;;21.67;19.33;;;;;;;;5034866;27;45521;-80
2021/07/21 05:13:46;;;;;;;;;25.50;18.25;;;;;;;;5039334;27;45475;-80
2021/07/21 05:16:11;;;;;;;;;20.75;17.75;;;;;;;;5037216;27;45403;-79
2021/07/21 05:18:37;;;;;;;;;20.00;18.25;;;;;;;;5034556;28;45423;-79
2021/07/21 05:21:03;;;;;;;;;20.75;17.25;;;;;;;;5035652;27;45684;-80
2021/07/21 05:23:29;;;;;;;;;24.50;19.25;;;;;;;;5037235;27;45568;-80
2021/07/21 05:25:54;;;;;;;;;21.25;17.75;;;;;;;;5034154;27;46249;-80
2021/07/21 05:28:20;;;;;;;;;19.50;18.75;;;;;;;;5014208;27;45623;-80
2021/07/21 05:30:45;;;;;;;;;21.50;16.00;;;;;;;;5032795;28;45320;-79
2021/07/21 05:33:11;;;;;;;;;17.75;16.25;;;;;;;;5031106;27;45479;-80
2021/07/21 05:35:37;;;;;;;;;20.50;17.75;;;;;;;;5034508;27;45650;-80
2021/07/21 05:38:02;;;;;;;;;23.50;18.25;;;;;;;;5030042;27;45417;-80
2021/07/21 05:40:27;;;;;;;;;21.50;17.50;;;;;;;;5007136;27;45490;-80
2021/07/21 05:42:53;;;;;;;;;21.00;18.00;;;;;;;;5035141;28;45538;-80
2021/07/21 05:45:18;;;;;;;;;26.00;19.33;;;;;;;;5016422;27;47102;-80
2021/07/21 05:47:43;;;;;;;;;20.33;18.67;;;;;;;;5032733;27;45837;-80
2021/07/21 05:50:12;;;;;;;;;22.33;17.33;;;;;;;;5041637;27;45440;-81
2021/07/21 05:52:37;;;;;;;;;26.25;19.75;;;;;;;;5036718;27;45553;-80
2021/07/21 05:55:03;;;;;;;;;19.33;17.33;;;;;;;;5032761;28;46498;-80
2021/07/21 05:57:29;;;;;;;;;17.00;17.00;;;;;;;;5036133;28;45560;-80
2021/07/21 05:59:54;;;;;;;;;25.25;19.25;;;;;;;;5028140;27;45466;-80
2021/07/21 06:02:20;;;;;;;;;23.25;19.75;;;;;;;;5047088;27;45487;-80
2021/07/21 06:04:45;;;;;;;;;20.00;18.67;;;;;;;;5036249;27;46437;-80
2021/07/21 06:07:11;;;;;;;;;25.50;21.00;;;;;;;;5040993;28;45392;-80
2021/07/21 06:09:36;;;;;;;;;22.00;19.25;;;;;;;;5026381;27;45415;-80
2021/07/21 06:12:02;;;;;;;;;24.00;18.00;;;;;;;;5028176;27;45486;-80
2021/07/21 06:14:27;;;;;;;;;21.75;19.00;;;;;;;;5037786;27;45451;-79
2021/07/21 06:16:53;;;;;;;;;22.33;18.33;;;;;;;;5036746;27;45556;-80
2021/07/21 06:19:18;;;;;;;;;21.75;18.75;;;;;;;;5036065;27;45490;-81
2021/07/21 06:21:44;;;;;;;;;19.50;19.50;;;;;;;;5009607;28;45570;-80
2021/07/21 06:24:09;;;;;;;;;16.50;16.00;;;;;;;;5028418;27;46173;-80
2021/07/21 06:26:34;;;;;;;;;24.00;20.33;;;;;;;;5036589;27;45295;-81
2021/07/21 06:29:00;;;;;;;;;19.33;16.67;;;;;;;;5038099;27;45286;-79
2021/07/21 06:31:25;;;;;;;;;30.00;19.67;;;;;;;;5031973;27;45368;-80
2021/07/21 06:33:50;;;;;;;;;25.67;22.67;;;;;;;;5035584;28;46306;-80
2021/07/21 06:36:15;;;;;;;;;22.33;20.33;;;;;;;;5033257;27;45467;-90
2021/07/21 06:38:41;;;;;;;;;24.67;19.67;;;;;;;;5037553;27;45326;-80
2021/07/21 06:41:06;;;;;;;;;23.00;19.25;;;;;;;;5023702;27;45503;-79
2021/07/21 06:43:31;;;;;;;;;23.00;18.00;;;;;;;;5032749;27;46256;-80
2021/07/21 06:45:58;;;;;;;;;25.00;19.33;;;;;;;;5017411;28;45898;-79
2021/07/21 06:48:23;;;;;;;;;17.75;17.00;;;;;;;;5031652;28;45573;-80
2021/07/21 06:50:49;;;;;;;;;27.25;22.25;;;;;;;;5023960;27;45639;-80
2021/07/21 06:53:14;;;;;;;;;23.75;19.50;;;;;;;;5014521;27;46139;-80
2021/07/21 06:55:39;;;;;;;;;28.67;22.00;;;;;;;;5032785;27;45390;-80
2021/07/21 06:58:04;;;;;;;;;21.67;18.33;;;;;;;;5034376;27;45412;-80
2021/07/21 07:00:31;;;;;;;;;25.33;21.33;;;;;;;;5030608;27;45552;-79
2021/07/21 07:02:57;;;;;;;;;22.00;20.75;;;;;;;;5022542;27;46262;-79
2021/07/21 07:05:22;;;;;;;;;24.75;21.25;;;;;;;;5042138;27;45518;-81
2021/07/21 07:07:47;;;;;;;;;25.25;18.25;;;;;;;;5039371;28;45443;-79
2021/07/21 07:10:13;;;;;;;;;24.00;21.00;;;;;;;;5032940;27;45361;-80
2021/07/21 07:12:38;;;;;;;;;28.25;23.75;;;;;;;;5031072;27;45832;-80
2021/07/21 07:15:04;;;;;;;;;29.75;27.25;;;;;;;;5029872;27;45433;-79
2021/07/21 07:17:30;;;;;;;;;30.75;28.25;;;;;;;;5043103;27;45319;-79
2021/07/21 07:19:55;;;;;;;;;31.00;25.00;;;;;;;;5031857;27;45637;-80
2021/07/21 07:22:21;;;;;;;;;30.00;25.00;;;;;;;;5005650;27;48043;-79
2021/07/21 07:24:47;;;;;;;;;31.25;26.00;;;;;;;;5008593;28;45824;-79
2021/07/21 07:27:12;;;;;;;;;32.00;25.00;;;;;;;;5029309;27;45400;-79
2021/07/21 07:29:37;;;;;;;;;29.75;24.00;;;;;;;;5037619;27;45545;-79
2021/07/21 07:32:02;;;;;;;;;31.33;24.67;;;;;;;;5032294;27;46056;-79
2021/07/21 07:34:28;;;;;;;;;24.75;21.00;;;;;;;;5030922;27;45676;-79
2021/07/21 07:36:53;;;;;;;;;25.67;20.33;;;;;;;;5019182;27;45532;-79
2021/07/21 07:39:18;;;;;;;;;30.67;24.67;;;;;;;;5033257;27;45609;-79
2021/07/21 07:41:44;;;;;;;;;30.25;25.50;;;;;;;;5031274;27;46644;-84
2021/07/21 07:44:09;;;;;;;;;26.25;24.75;;;;;;;;5033205;27;45461;-78
2021/07/21 07:46:35;;;;;;;;;29.00;24.50;;;;;;;;5031451;27;45455;-79
2021/07/21 07:49:03;;;;;;;;;27.25;23.25;;;;;;;;5016009;28;45453;-79
2021/07/21 07:51:29;;;;;;;;;22.75;22.25;;;;;;;;5032775;27;45461;-78
2021/07/21 07:53:55;;;;;;;;;28.75;24.75;;;;;;;;5016672;27;45969;-78
2021/07/21 07:56:20;;;;;;;;;28.25;23.00;;;;;;;;5034193;27;45360;-78
2021/07/21 07:58:46;;;;;;;;;24.00;22.33;;;;;;;;5034875;27;45625;-78
2021/07/21 08:01:12;;;;;;;;;1.00;0.00;;;;;;;;5033375;27;45377;-78
2021/07/21 08:03:37;;;;;;;;;22.25;22.25;;;;;;;;5083093;27;45396;-78
2021/07/21 08:06:02;;;;;;;;;30.00;24.75;;;;;;;;5032051;28;45460;-78
2021/07/21 08:08:28;;;;;;;;;26.50;22.25;;;;;;;;5027524;27;45369;-80
2021/07/21 08:10:54;;;;;;;;;20.75;19.25;;;;;;;;5027875;27;47654;-78
2021/07/21 08:13:20;;;;;;;;;24.25;21.50;;;;;;;;5031375;27;45512;-78
2021/07/21 08:15:45;;;;;;;;;26.75;23.75;;;;;;;;5033582;27;45243;-81
2021/07/21 08:18:12;;;;;;;;;22.00;21.00;;;;;;;;5032186;27;45476;-80
2021/07/21 08:20:37;;;;;;;;;21.50;21.50;;;;;;;;5036169;27;46015;-80
2021/07/21 08:23:02;;;;;;;;;24.25;21.00;;;;;;;;5031081;27;45458;-80
2021/07/21 08:25:28;;;;;;;;;27.00;23.25;;;;;;;;5028189;27;45447;-80
2021/07/21 08:27:53;;;;;;;;;29.00;23.33;;;;;;;;5028727;28;45462;-79
2021/07/21 08:30:19;;;;;;;;;29.75;21.50;;;;;;;;5029835;27;45539;-79
2021/07/21 08:32:47;;;;;;;;;26.25;22.00;;;;;;;;5030085;27;45646;-79
2021/07/21 08:35:13;;;;;;;;;26.00;21.50;;;;;;;;5036775;27;45555;-79
2021/07/21 08:37:39;;;;;;;;;25.75;21.25;;;;;;;;5031352;27;45529;-79
2021/07/21 08:40:06;;;;;;;;;25.50;21.25;;;;;;;;5024305;27;45934;-79
2021/07/21 08:42:32;;;;;;;;;24.00;21.75;;;;;;;;5024136;27;45579;-79
2021/07/21 08:44:57;;;;;;;;;28.25;21.50;;;;;;;;5026158;27;45447;-78
2021/07/21 08:47:23;;;;;;;;;26.00;22.00;;;;;;;;5027914;27;45392;-79
2021/07/21 08:49:48;;;;;;;;;25.25;21.50;;;;;;;;5025479;27;46127;-80
2021/07/21 08:52:15;;;;;;;;;24.75;21.50;;;;;;;;5026986;27;45354;-80
2021/07/21 08:54:41;;;;;;;;;25.25;22.50;;;;;;;;5029681;27;45519;-79
2021/07/21 08:57:07;;;;;;;;;19.75;19.25;;;;;;;;5024621;27;45353;-80
2021/07/21 08:59:32;;;;;;;;;23.00;20.00;;;;;;;;5028200;27;45946;-80
2021/07/21 09:01:58;;;;;;;;;23.00;21.25;;;;;;;;5026905;27;45566;-79
2021/07/21 09:04:23;;;;;;;;;23.25;22.25;;;;;;;;5026741;27;45453;-79
2021/07/21 09:06:48;;;;;;;;;26.33;20.00;;;;;;;;5030279;28;45501;-80
2021/07/21 09:09:14;;;;;;;;;22.00;20.33;;;;;;;;5027940;28;45468;-79
2021/07/21 09:11:40;;;;;;;;;24.00;20.75;;;;;;;;5028196;27;45519;-79
2021/07/21 09:14:07;;;;;;;;;22.75;19.00;;;;;;;;5027151;27;45513;-80
2021/07/21 09:16:32;;;;;;;;;23.75;19.50;;;;;;;;5025466;27;45429;-79
2021/07/21 09:18:57;;;;;;;;;25.67;19.67;;;;;;;;5020594;27;47326;-80
2021/07/21 09:21:24;;;;;;;;;19.50;17.25;;;;;;;;5050730;27;45438;-80
2021/07/21 09:23:50;;;;;;;;;21.25;18.00;;;;;;;;5028958;28;45715;-79
2021/07/21 09:26:17;;;;;;;;;18.00;16.50;;;;;;;;5021108;27;45336;-79
2021/07/21 09:28:43;;;;;;;;;17.75;16.00;;;;;;;;5025824;27;46312;-80
2021/07/21 09:31:12;;;;;;;;;19.00;15.50;;;;;;;;5025245;27;45494;-79
2021/07/21 09:33:37;;;;;;;;;19.00;18.00;;;;;;;;5023465;27;45573;-80
2021/07/21 09:36:02;;;;;;;;;17.00;15.50;;;;;;;;5030168;27;45437;-79
2021/07/21 09:38:29;;;;;;;;;17.50;15.25;;;;;;;;5025888;27;45507;-80
2021/07/21 09:40:56;;;;;;;;;18.50;17.25;;;;;;;;5025720;27;45778;-80
2021/07/21 09:43:26;;;;;;;;;17.00;16.00;;;;;;;;5022745;27;45472;-79
2021/07/21 09:45:52;;;;;;;;;18.25;17.00;;;;;;;;5025784;28;45538;-79
2021/07/21 09:48:20;;;;;;;;;17.75;15.75;;;;;;;;5026957;27;45532;-79
2021/07/21 09:50:47;;;;;;;;;16.25;15.75;;;;;;;;5028546;27;45379;-79
2021/07/21 09:53:13;;;;;;;;;17.75;16.25;;;;;;;;5025236;27;45393;-79
2021/07/21 09:55:42;;;;;;;;;14.50;14.50;;;;;;;;5002579;27;45626;-78
2021/07/21 09:58:10;;;;;;;;;17.75;15.75;;;;;;;;5016207;28;46277;-79
2021/07/21 10:00:45;;;;;;;;;21.50;19.00;;;;;;;;5022501;28;45579;-79
2021/07/21 10:03:21;;;;;;;;;22.25;17.50;;;;;;;;5024937;27;45711;-79
2021/07/21 10:06:05;;;;;;;;;14.25;13.25;;;;;;;;5024534;27;45512;-79
2021/07/21 10:08:30;;;;;;;;;22.00;17.50;;;;;;;;5030352;27;46363;-79
2021/07/21 10:10:56;;;;;;;;;17.00;15.00;;;;;;;;5027981;27;45333;-79
2021/07/21 10:13:21;;;;;;;;;23.50;16.25;;;;;;;;5025403;27;45485;-79
2021/07/21 10:15:47;;;;;;;;;22.00;16.67;;;;;;;;5064863;27;45369;-79
2021/07/21 10:18:14;;;;;;;;;19.00;16.75;;;;;;;;5027964;27;46008;-79
2021/07/21 10:20:41;;;;;;;;;19.00;16.75;;;;;;;;5029347;28;46169;-79
2021/07/21 10:23:07;;;;;;;;;18.75;18.25;;;;;;;;5029320;27;45794;-79
2021/07/21 10:25:33;;;;;;;;;18.75;15.00;;;;;;;;5035038;27;45424;-79
2021/07/21 10:27:58;;;;;;;;;18.50;16.75;;;;;;;;5027344;28;45918;-79
2021/07/21 10:30:25;;;;;;;;;17.50;16.75;;;;;;;;5018036;27;45386;-79
2021/07/21 10:32:50;;;;;;;;;19.75;17.25;;;;;;;;5024281;27;45520;-80
2021/07/21 10:35:15;;;;;;;;;19.25;15.75;;;;;;;;5032211;27;45495;-78
2021/07/21 10:37:41;;;;;;;;;15.00;15.00;;;;;;;;5050261;27;47317;-79
2021/07/21 10:40:07;;;;;;;;;18.50;16.00;;;;;;;;5029459;27;45544;-79
2021/07/21 10:42:33;;;;;;;;;15.25;15.25;;;;;;;;5026634;27;45391;-79
2021/07/21 10:45:22;;;;;;;;;14.25;12.25;;;;;;;;5025133;27;45369;-80
2021/07/21 10:47:52;;;;;;;;;21.00;15.75;;;;;;;;5025948;27;47749;-79
2021/07/21 10:50:27;;;;;;;;;18.50;15.75;;;;;;;;5032115;27;45525;-79
2021/07/21 10:53:13;;;;;;;;;20.75;17.00;;;;;;;;5032597;27;46231;-78
2021/07/21 10:55:44;;;;;;;;;14.25;13.25;;;;;;;;5027438;27;45404;-79
2021/07/21 11:00:55;;;;;;;;;15.50;14.00;;;;;;;;5027569;28;45670;-78
2021/07/21 11:03:23;;;;;;;;;19.50;16.50;;;;;;;;5028352;27;45451;-79
2021/07/21 11:05:59;;;;;;;;;17.75;13.75;;;;;;;;5073839;27;45641;-79
2021/07/21 11:08:24;;;;;;;;;12.75;12.50;;;;;;;;5029091;27;46093;-78
2021/07/21 11:10:51;;;;;;;;;13.75;13.75;;;;;;;;5026769;27;45441;-79
2021/07/21 11:13:28;;;;;;;;;14.25;13.75;;;;;;;;5024993;27;45507;-78
2021/07/21 11:15:54;;;;;;;;;15.75;13.00;;;;;;;;5063219;27;45454;-78
2021/07/21 11:18:22;;;;;;;;;18.50;14.00;;;;;;;;5026692;27;46023;-78
2021/07/21 11:21:04;;;;;;;;;16.00;14.75;;;;;;;;5023444;28;45843;-78
2021/07/21 11:23:42;;;;;;;;;15.25;15.25;;;;;;;;5052328;27;45383;-78
2021/07/21 11:26:25;;;;;;;;;14.00;14.00;;;;;;;;5023849;27;45552;-79
2021/07/21 11:28:51;;;;;;;;;13.00;13.00;;;;;;;;5026783;27;46672;-79
2021/07/21 11:31:16;;;;;;;;;16.33;16.00;;;;;;;;5007109;27;46066;-79
2021/07/21 11:33:50;;;;;;;;;20.00;15.50;;;;;;;;5016888;27;45402;-79
2021/07/21 11:36:35;;;;;;;;;15.50;14.75;;;;;;;;5024123;27;45539;-79
2021/07/21 11:39:00;;;;;;;;;16.50;15.50;;;;;;;;5021681;27;45818;-80
2021/07/21 11:41:43;;;;;;;;;21.33;16.00;;;;;;;;5030567;27;45483;-79
2021/07/21 11:44:09;;;;;;;;;14.50;12.25;;;;;;;;5064736;27;45541;-79
2021/07/21 11:46:35;;;;;;;;;16.50;15.00;;;;;;;;5036131;27;45446;-79
2021/07/21 11:49:00;;;;;;;;;13.00;13.00;;;;;;;;5024150;27;45386;-79
2021/07/21 11:51:26;;;;;;;;;18.50;15.00;;;;;;;;5045419;27;45443;-80
2021/07/21 11:53:51;;;;;;;;;16.67;16.33;;;;;;;;5034730;27;45355;-79
2021/07/21 11:56:16;;;;;;;;;12.25;12.25;;;;;;;;5026425;27;45425;-80
2021/07/21 11:58:41;;;;;;;;;15.00;12.67;;;;;;;;5028117;27;46312;-79
2021/07/21 12:01:07;;;;;;;;;15.00;14.33;;;;;;;;5023573;28;45504;-79
2021/07/21 12:03:45;;;;;;;;;17.75;14.25;;;;;;;;5029929;27;46050;-79
2021/07/21 12:06:10;;;;;;;;;14.25;12.25;;;;;;;;5026772;27;45482;-79
2021/07/21 12:08:49;;;;;;;;;15.00;13.25;;;;;;;;5028076;27;45376;-79
2021/07/21 12:11:14;;;;;;;;;15.50;12.50;;;;;;;;5032051;27;45625;-80
2021/07/21 12:13:39;;;;;;;;;13.00;11.67;;;;;;;;5024113;27;45317;-79
2021/07/21 12:16:05;;;;;;;;;17.67;14.67;;;;;;;;5028313;28;45375;-79
2021/07/21 12:18:30;;;;;;;;;16.00;13.67;;;;;;;;5026127;28;45460;-80
2021/07/21 12:20:55;;;;;;;;;12.00;12.00;;;;;;;;5030909;27;45443;-79
2021/07/21 12:23:21;;;;;;;;;17.00;13.75;;;;;;;;5011995;27;45375;-79
2021/07/21 12:25:46;;;;;;;;;13.00;12.00;;;;;;;;5018684;27;45302;-79
2021/07/21 12:28:12;;;;;;;;;11.25;11.25;;;;;;;;5023396;27;46141;-80
2021/07/21 12:30:37;;;;;;;;;14.00;13.00;;;;;;;;5032902;27;45486;-80
2021/07/21 12:33:03;;;;;;;;;14.75;13.25;;;;;;;;5011701;27;45567;-80
2021/07/21 12:35:29;;;;;;;;;13.75;13.50;;;;;;;;5027561;27;45661;-80
2021/07/21 12:37:55;;;;;;;;;15.25;15.25;;;;;;;;5026504;27;45467;-79
2021/07/21 12:40:26;;;;;;;;;13.50;12.00;;;;;;;;5051947;27;45535;-79
2021/07/21 12:42:53;;;;;;;;;14.50;12.25;;;;;;;;5011008;28;45814;-80
2021/07/21 12:45:20;;;;;;;;;12.00;11.00;;;;;;;;5010765;27;45550;-80
2021/07/21 12:47:46;;;;;;;;;13.50;12.00;;;;;;;;5059029;27;45431;-80
2021/07/21 12:50:12;;;;;;;;;17.75;14.75;;;;;;;;5054451;27;47866;-79
2021/07/21 12:52:39;;;;;;;;;14.75;12.50;;;;;;;;5038478;27;45509;-80
2021/07/21 12:55:05;;;;;;;;;14.75;14.00;;;;;;;;5024496;28;45435;-79
2021/07/21 12:57:34;;;;;;;;;15.25;14.25;;;;;;;;5028649;27;46180;-80
2021/07/21 13:00:04;;;;;;;;;13.50;12.00;;;;;;;;5028110;27;45626;-79
2021/07/21 13:02:29;;;;;;;;;13.00;12.50;;;;;;;;5030432;27;45635;-80
2021/07/21 13:04:54;;;;;;;;;13.25;12.00;;;;;;;;5035413;27;45254;-79
2021/07/21 13:07:21;;;;;;;;;16.50;11.75;;;;;;;;5039597;27;45924;-79
2021/07/21 13:09:49;;;;;;;;;13.25;10.75;;;;;;;;5030324;27;45372;-80
2021/07/21 13:12:15;;;;;;;;;11.50;11.50;;;;;;;;5020862;27;45626;-80
2021/07/21 13:14:40;;;;;;;;;15.50;13.50;;;;;;;;5057694;27;45408;-80
2021/07/21 13:17:12;;;;;;;;;12.50;12.00;;;;;;;;5029997;27;45897;-89
2021/07/21 13:19:37;;;;;;;;;14.25;11.00;;;;;;;;5021286;27;45746;-80
2021/07/21 13:22:03;;;;;;;;;11.75;11.75;;;;;;;;5030477;27;45759;-79
2021/07/21 13:24:29;;;;;;;;;14.00;12.25;;;;;;;;5052307;27;46814;-81
2021/07/21 13:26:56;;;;;;;;;12.75;12.00;;;;;;;;5024076;27;45690;-80
2021/07/21 13:29:22;;;;;;;;;14.00;12.00;;;;;;;;5031425;27;45399;-80
2021/07/21 13:31:48;;;;;;;;;12.00;11.25;;;;;;;;5029680;27;45630;-80
2021/07/21 13:34:21;;;;;;;;;11.00;9.50;;;;;;;;5030148;27;45274;-80
2021/07/21 13:36:47;;;;;;;;;11.25;11.00;;;;;;;;5026257;28;46240;-80
2021/07/21 13:39:13;;;;;;;;;12.50;10.75;;;;;;;;5028272;27;45387;-79
2021/07/21 13:41:42;;;;;;;;;13.50;12.50;;;;;;;;5075983;27;49095;-79
2021/07/21 13:44:09;;;;;;;;;9.25;9.25;;;;;;;;5032553;27;45506;-80
2021/07/21 13:46:35;;;;;;;;;12.50;12.00;;;;;;;;5026924;27;46443;-80
2021/07/21 13:49:02;;;;;;;;;12.00;9.00;;;;;;;;5012621;27;45618;-80
2021/07/21 13:51:31;;;;;;;;;15.00;11.25;;;;;;;;5026093;27;45367;-80
2021/07/21 13:53:56;;;;;;;;;16.25;13.75;;;;;;;;5024345;28;45550;-79
2021/07/21 13:56:21;;;;;;;;;15.00;13.33;;;;;;;;5028477;27;46282;-79
2021/07/21 13:58:46;;;;;;;;;14.00;13.33;;;;;;;;5025018;27;45530;-79
2021/07/21 14:01:12;;;;;;;;;16.00;13.00;;;;;;;;5014072;27;45561;-79
2021/07/21 14:03:44;;;;;;;;;14.25;14.25;;;;;;;;5027067;27;45606;-79
2021/07/21 14:06:09;;;;;;;;;12.50;11.50;;;;;;;;5011916;27;47470;-80
2021/07/21 14:08:34;;;;;;;;;13.67;11.00;;;;;;;;5030455;27;45430;-80
2021/07/21 14:11:00;;;;;;;;;13.00;11.00;;;;;;;;5030555;27;45283;-81
2021/07/21 14:13:25;;;;;;;;;12.67;12.67;;;;;;;;5023826;27;45519;-79
2021/07/21 14:15:50;;;;;;;;;11.67;11.67;;;;;;;;5028223;28;45389;-79
2021/07/21 14:18:15;;;;;;;;;13.00;13.00;;;;;;;;5034267;27;45567;-79
2021/07/21 14:20:40;;;;;;;;;14.33;11.00;;;;;;;;5090375;27;45442;-79
2021/07/21 14:23:06;;;;;;;;;10.67;9.00;;;;;;;;5012858;27;45516;-79